Atlanta, Georgia
Traffic Map
Current Weather Conditions
Atlanta, Georgia
Scattered Clouds
Scattered Clouds
92°
Feels Like: 93°
Wind Chill: 92° Ceiling: Unl
Heat Index: 93° Visibility: 10mi
Dew Point: 63° Wind: 6mph
Humidity: 38% Direction: 330° (NNW)
Pressure: 30.09in Gusts: 0mph
Raw Report DataKATL 151952Z 33005KT 10SM FEW060 SCT150 SCT250 33/17 A3009 RMK AO2 SLP177 T03330172
Traffic Incident Summary
Active as of:
Severity:
Category:
InformationThere was an issue retrieving the traffic information for this location. Please try a different location or try again shortly.
Advertisements